sensor_id;sensor_type;location;lat;lon;timestamp;P1;durP1;ratioP1;P2;durP2;ratioP2
50517;SDS011;37075;44.084;2.962;2023-12-20T00:02:27;8.80;;;3.97;;
50517;SDS011;37075;44.084;2.962;2023-12-20T00:05:13;4.88;;;2.58;;
50517;SDS011;37075;44.084;2.962;2023-12-20T00:07:59;4.38;;;2.83;;
50517;SDS011;37075;44.084;2.962;2023-12-20T00:10:45;3.00;;;2.13;;
50517;SDS011;37075;44.084;2.962;2023-12-20T00:13:32;5.05;;;2.78;;
50517;SDS011;37075;44.084;2.962;2023-12-20T00:16:19;6.30;;;3.25;;
50517;SDS011;37075;44.084;2.962;2023-12-20T00:19:06;6.65;;;3.78;;
50517;SDS011;37075;44.084;2.962;2023-12-20T00:21:52;8.00;;;4.10;;
50517;SDS011;37075;44.084;2.962;2023-12-20T00:24:37;8.35;;;3.20;;
50517;SDS011;37075;44.084;2.962;2023-12-20T00:27:23;5.75;;;3.63;;
50517;SDS011;37075;44.084;2.962;2023-12-20T00:30:10;6.90;;;4.07;;
50517;SDS011;37075;44.084;2.962;2023-12-20T00:32:57;5.28;;;3.22;;
50517;SDS011;37075;44.084;2.962;2023-12-20T00:35:43;13.50;;;4.80;;
50517;SDS011;37075;44.084;2.962;2023-12-20T00:38:29;7.20;;;3.33;;
50517;SDS011;37075;44.084;2.962;2023-12-20T00:41:15;6.32;;;3.45;;
50517;SDS011;37075;44.084;2.962;2023-12-20T00:44:01;4.20;;;2.65;;
50517;SDS011;37075;44.084;2.962;2023-12-20T00:46:47;5.10;;;2.30;;
50517;SDS011;37075;44.084;2.962;2023-12-20T00:49:34;3.85;;;3.15;;
50517;SDS011;37075;44.084;2.962;2023-12-20T00:52:20;4.82;;;3.97;;
50517;SDS011;37075;44.084;2.962;2023-12-20T00:55:07;7.40;;;3.13;;
50517;SDS011;37075;44.084;2.962;2023-12-20T00:57:53;5.10;;;2.70;;
50517;SDS011;37075;44.084;2.962;2023-12-20T01:00:38;5.00;;;2.70;;
50517;SDS011;37075;44.084;2.962;2023-12-20T01:03:26;3.28;;;1.77;;
50517;SDS011;37075;44.084;2.962;2023-12-20T01:06:13;4.43;;;2.67;;
50517;SDS011;37075;44.084;2.962;2023-12-20T01:09:00;3.55;;;2.58;;
50517;SDS011;37075;44.084;2.962;2023-12-20T01:11:46;5.50;;;2.13;;
50517;SDS011;37075;44.084;2.962;2023-12-20T01:14:33;9.45;;;3.65;;
50517;SDS011;37075;44.084;2.962;2023-12-20T01:17:19;8.35;;;3.95;;
50517;SDS011;37075;44.084;2.962;2023-12-20T01:20:05;3.38;;;2.25;;
50517;SDS011;37075;44.084;2.962;2023-12-20T01:22:54;11.57;;;3.40;;
50517;SDS011;37075;44.084;2.962;2023-12-20T01:25:40;5.68;;;3.63;;
50517;SDS011;37075;44.084;2.962;2023-12-20T01:28:26;4.50;;;2.90;;
50517;SDS011;37075;44.084;2.962;2023-12-20T01:31:12;7.20;;;3.15;;
50517;SDS011;37075;44.084;2.962;2023-12-20T01:33:58;3.55;;;1.85;;
50517;SDS011;37075;44.084;2.962;2023-12-20T01:36:44;2.95;;;2.35;;
50517;SDS011;37075;44.084;2.962;2023-12-20T01:39:31;2.95;;;2.08;;
50517;SDS011;37075;44.084;2.962;2023-12-20T01:42:18;5.82;;;2.17;;
50517;SDS011;37075;44.084;2.962;2023-12-20T01:45:04;3.92;;;2.40;;
50517;SDS011;37075;44.084;2.962;2023-12-20T01:47:50;10.07;;;3.25;;
50517;SDS011;37075;44.084;2.962;2023-12-20T01:50:37;3.60;;;2.30;;
50517;SDS011;37075;44.084;2.962;2023-12-20T01:53:24;3.85;;;2.47;;
50517;SDS011;37075;44.084;2.962;2023-12-20T01:56:12;2.28;;;1.58;;
50517;SDS011;37075;44.084;2.962;2023-12-20T01:58:59;4.05;;;2.45;;
50517;SDS011;37075;44.084;2.962;2023-12-20T02:01:47;5.35;;;3.33;;
50517;SDS011;37075;44.084;2.962;2023-12-20T02:04:33;8.32;;;2.83;;
50517;SDS011;37075;44.084;2.962;2023-12-20T02:07:19;4.72;;;2.47;;
50517;SDS011;37075;44.084;2.962;2023-12-20T02:10:07;8.57;;;3.53;;
50517;SDS011;37075;44.084;2.962;2023-12-20T02:12:55;4.90;;;2.30;;
50517;SDS011;37075;44.084;2.962;2023-12-20T02:15:41;5.78;;;3.38;;
50517;SDS011;37075;44.084;2.962;2023-12-20T02:18:28;5.35;;;2.45;;
50517;SDS011;37075;44.084;2.962;2023-12-20T02:21:14;2.90;;;1.63;;
50517;SDS011;37075;44.084;2.962;2023-12-20T02:24:01;9.93;;;2.22;;
50517;SDS011;37075;44.084;2.962;2023-12-20T02:26:47;9.43;;;3.80;;
50517;SDS011;37075;44.084;2.962;2023-12-20T02:29:34;5.78;;;3.80;;
50517;SDS011;37075;44.084;2.962;2023-12-20T02:32:21;4.63;;;2.85;;
50517;SDS011;37075;44.084;2.962;2023-12-20T02:35:10;8.15;;;4.18;;
50517;SDS011;37075;44.084;2.962;2023-12-20T02:37:56;5.70;;;3.58;;
50517;SDS011;37075;44.084;2.962;2023-12-20T02:40:43;9.73;;;3.15;;
50517;SDS011;37075;44.084;2.962;2023-12-20T02:43:29;7.20;;;3.17;;
50517;SDS011;37075;44.084;2.962;2023-12-20T02:46:15;9.57;;;4.32;;
50517;SDS011;37075;44.084;2.962;2023-12-20T02:49:02;4.60;;;3.25;;
50517;SDS011;37075;44.084;2.962;2023-12-20T02:51:48;4.90;;;3.35;;
50517;SDS011;37075;44.084;2.962;2023-12-20T02:54:34;4.50;;;3.65;;
50517;SDS011;37075;44.084;2.962;2023-12-20T02:57:21;5.07;;;2.10;;
50517;SDS011;37075;44.084;2.962;2023-12-20T03:00:07;6.55;;;2.67;;
50517;SDS011;37075;44.084;2.962;2023-12-20T03:02:54;3.53;;;3.15;;
50517;SDS011;37075;44.084;2.962;2023-12-20T03:05:40;7.65;;;3.53;;
50517;SDS011;37075;44.084;2.962;2023-12-20T03:08:25;8.00;;;3.67;;
50517;SDS011;37075;44.084;2.962;2023-12-20T03:11:11;4.88;;;2.78;;
50517;SDS011;37075;44.084;2.962;2023-12-20T03:13:59;10.38;;;4.75;;
50517;SDS011;37075;44.084;2.962;2023-12-20T03:16:46;6.00;;;2.95;;
50517;SDS011;37075;44.084;2.962;2023-12-20T03:19:33;8.35;;;3.92;;
50517;SDS011;37075;44.084;2.962;2023-12-20T03:22:19;5.88;;;2.55;;
50517;SDS011;37075;44.084;2.962;2023-12-20T03:25:05;6.30;;;3.15;;
50517;SDS011;37075;44.084;2.962;2023-12-20T03:27:51;10.35;;;4.53;;
50517;SDS011;37075;44.084;2.962;2023-12-20T03:30:39;7.32;;;4.85;;
50517;SDS011;37075;44.084;2.962;2023-12-20T03:33:25;5.57;;;2.90;;
50517;SDS011;37075;44.084;2.962;2023-12-20T03:36:11;7.22;;;3.95;;
50517;SDS011;37075;44.084;2.962;2023-12-20T03:38:57;6.07;;;3.78;;
50517;SDS011;37075;44.084;2.962;2023-12-20T03:41:43;5.82;;;4.40;;
50517;SDS011;37075;44.084;2.962;2023-12-20T03:44:28;5.40;;;4.00;;
50517;SDS011;37075;44.084;2.962;2023-12-20T03:47:16;7.43;;;3.88;;
50517;SDS011;37075;44.084;2.962;2023-12-20T03:50:02;7.78;;;4.03;;
50517;SDS011;37075;44.084;2.962;2023-12-20T03:52:48;7.43;;;4.28;;
50517;SDS011;37075;44.084;2.962;2023-12-20T03:55:34;4.90;;;3.22;;
50517;SDS011;37075;44.084;2.962;2023-12-20T03:58:19;7.82;;;3.72;;
50517;SDS011;37075;44.084;2.962;2023-12-20T04:01:08;5.05;;;2.78;;
50517;SDS011;37075;44.084;2.962;2023-12-20T04:03:56;5.13;;;3.35;;
50517;SDS011;37075;44.084;2.962;2023-12-20T04:06:43;4.70;;;2.88;;
50517;SDS011;37075;44.084;2.962;2023-12-20T04:09:29;4.28;;;2.55;;
50517;SDS011;37075;44.084;2.962;2023-12-20T04:12:14;5.28;;;3.78;;
50517;SDS011;37075;44.084;2.962;2023-12-20T04:15:00;4.90;;;3.72;;
50517;SDS011;37075;44.084;2.962;2023-12-20T04:17:48;5.53;;;3.63;;
50517;SDS011;37075;44.084;2.962;2023-12-20T04:20:36;8.48;;;4.47;;
50517;SDS011;37075;44.084;2.962;2023-12-20T04:23:22;8.05;;;3.33;;
50517;SDS011;37075;44.084;2.962;2023-12-20T04:26:08;2.50;;;2.17;;
50517;SDS011;37075;44.084;2.962;2023-12-20T04:28:54;5.47;;;3.28;;
50517;SDS011;37075;44.084;2.962;2023-12-20T04:31:40;7.45;;;3.47;;
50517;SDS011;37075;44.084;2.962;2023-12-20T04:34:26;5.75;;;3.80;;
50517;SDS011;37075;44.084;2.962;2023-12-20T04:37:13;5.63;;;3.90;;
50517;SDS011;37075;44.084;2.962;2023-12-20T04:39:59;7.20;;;4.10;;
50517;SDS011;37075;44.084;2.962;2023-12-20T04:42:46;3.65;;;2.65;;
50517;SDS011;37075;44.084;2.962;2023-12-20T04:45:32;6.55;;;3.90;;
50517;SDS011;37075;44.084;2.962;2023-12-20T04:48:18;7.20;;;4.53;;
50517;SDS011;37075;44.084;2.962;2023-12-20T04:51:04;6.18;;;3.50;;
50517;SDS011;37075;44.084;2.962;2023-12-20T04:53:52;5.47;;;4.05;;
50517;SDS011;37075;44.084;2.962;2023-12-20T04:56:38;6.33;;;3.40;;
50517;SDS011;37075;44.084;2.962;2023-12-20T04:59:23;7.00;;;4.20;;
50517;SDS011;37075;44.084;2.962;2023-12-20T05:02:09;6.53;;;3.85;;
50517;SDS011;37075;44.084;2.962;2023-12-20T05:04:56;7.18;;;4.38;;
50517;SDS011;37075;44.084;2.962;2023-12-20T05:07:42;8.75;;;4.25;;
50517;SDS011;37075;44.084;2.962;2023-12-20T05:10:29;5.43;;;3.13;;
50517;SDS011;37075;44.084;2.962;2023-12-20T05:13:15;9.05;;;4.72;;
50517;SDS011;37075;44.084;2.962;2023-12-20T05:16:01;4.60;;;3.10;;
50517;SDS011;37075;44.084;2.962;2023-12-20T05:18:48;4.43;;;3.63;;
50517;SDS011;37075;44.084;2.962;2023-12-20T05:21:37;8.02;;;3.28;;
50517;SDS011;37075;44.084;2.962;2023-12-20T05:24:23;7.78;;;4.10;;
50517;SDS011;37075;44.084;2.962;2023-12-20T05:27:10;6.47;;;3.72;;
50517;SDS011;37075;44.084;2.962;2023-12-20T05:29:56;4.20;;;2.53;;
50517;SDS011;37075;44.084;2.962;2023-12-20T05:32:42;4.43;;;2.63;;
50517;SDS011;37075;44.084;2.962;2023-12-20T05:35:28;5.63;;;2.67;;
50517;SDS011;37075;44.084;2.962;2023-12-20T05:38:14;6.28;;;3.13;;
50517;SDS011;37075;44.084;2.962;2023-12-20T05:41:01;3.33;;;2.05;;
50517;SDS011;37075;44.084;2.962;2023-12-20T05:43:49;4.28;;;3.03;;
50517;SDS011;37075;44.084;2.962;2023-12-20T05:46:35;8.20;;;3.67;;
50517;SDS011;37075;44.084;2.962;2023-12-20T05:49:21;6.78;;;3.15;;
50517;SDS011;37075;44.084;2.962;2023-12-20T05:52:07;5.50;;;2.97;;
50517;SDS011;37075;44.084;2.962;2023-12-20T05:54:52;7.68;;;2.58;;
50517;SDS011;37075;44.084;2.962;2023-12-20T05:57:40;4.40;;;2.10;;
50517;SDS011;37075;44.084;2.962;2023-12-20T06:00:28;7.72;;;4.45;;
50517;SDS011;37075;44.084;2.962;2023-12-20T06:03:15;4.80;;;2.78;;
50517;SDS011;37075;44.084;2.962;2023-12-20T06:06:04;4.43;;;2.75;;
50517;SDS011;37075;44.084;2.962;2023-12-20T06:08:51;2.58;;;2.15;;
50517;SDS011;37075;44.084;2.962;2023-12-20T06:11:37;3.35;;;2.03;;
50517;SDS011;37075;44.084;2.962;2023-12-20T06:14:23;7.05;;;3.20;;
50517;SDS011;37075;44.084;2.962;2023-12-20T06:17:11;6.95;;;1.98;;
50517;SDS011;37075;44.084;2.962;2023-12-20T06:19:57;3.92;;;2.42;;
50517;SDS011;37075;44.084;2.962;2023-12-20T06:22:43;3.63;;;2.53;;
50517;SDS011;37075;44.084;2.962;2023-12-20T06:25:29;5.72;;;2.60;;
50517;SDS011;37075;44.084;2.962;2023-12-20T06:28:15;4.32;;;2.38;;
50517;SDS011;37075;44.084;2.962;2023-12-20T06:31:01;3.83;;;2.47;;
50517;SDS011;37075;44.084;2.962;2023-12-20T06:33:49;3.53;;;1.90;;
50517;SDS011;37075;44.084;2.962;2023-12-20T06:36:41;3.78;;;2.25;;
50517;SDS011;37075;44.084;2.962;2023-12-20T06:39:27;2.72;;;1.88;;
50517;SDS011;37075;44.084;2.962;2023-12-20T06:42:15;2.97;;;1.67;;
50517;SDS011;37075;44.084;2.962;2023-12-20T06:45:01;1.90;;;1.75;;
50517;SDS011;37075;44.084;2.962;2023-12-20T06:47:47;4.32;;;2.10;;
50517;SDS011;37075;44.084;2.962;2023-12-20T06:50:35;5.10;;;1.50;;
50517;SDS011;37075;44.084;2.962;2023-12-20T06:53:24;4.65;;;1.83;;
50517;SDS011;37075;44.084;2.962;2023-12-20T06:56:10;4.63;;;1.48;;
50517;SDS011;37075;44.084;2.962;2023-12-20T06:58:57;3.55;;;1.50;;
50517;SDS011;37075;44.084;2.962;2023-12-20T07:01:45;2.05;;;0.95;;
50517;SDS011;37075;44.084;2.962;2023-12-20T07:04:33;2.53;;;1.50;;
50517;SDS011;37075;44.084;2.962;2023-12-20T07:07:20;1.73;;;1.13;;
50517;SDS011;37075;44.084;2.962;2023-12-20T07:10:08;2.90;;;0.93;;
50517;SDS011;37075;44.084;2.962;2023-12-20T07:12:53;4.35;;;0.80;;
50517;SDS011;37075;44.084;2.962;2023-12-20T07:15:39;2.17;;;0.82;;
50517;SDS011;37075;44.084;2.962;2023-12-20T07:18:25;2.78;;;1.13;;
50517;SDS011;37075;44.084;2.962;2023-12-20T07:21:11;0.93;;;0.80;;
50517;SDS011;37075;44.084;2.962;2023-12-20T07:23:59;0.28;;;0.20;;
50517;SDS011;37075;44.084;2.962;2023-12-20T07:26:45;0.20;;;0.10;;
50517;SDS011;37075;44.084;2.962;2023-12-20T07:29:31;0.30;;;0.08;;
50517;SDS011;37075;44.084;2.962;2023-12-20T07:32:17;0.38;;;0.20;;
50517;SDS011;37075;44.084;2.962;2023-12-20T07:35:04;0.30;;;0.20;;
50517;SDS011;37075;44.084;2.962;2023-12-20T07:37:51;0.20;;;0.10;;
50517;SDS011;37075;44.084;2.962;2023-12-20T07:40:38;0.00;;;0.00;;
50517;SDS011;37075;44.084;2.962;2023-12-20T07:43:24;0.55;;;0.10;;
50517;SDS011;37075;44.084;2.962;2023-12-20T07:46:10;1.30;;;0.63;;
50517;SDS011;37075;44.084;2.962;2023-12-20T07:48:56;0.20;;;0.10;;
50517;SDS011;37075;44.084;2.962;2023-12-20T07:51:42;0.00;;;0.00;;
50517;SDS011;37075;44.084;2.962;2023-12-20T07:54:28;0.00;;;0.00;;
50517;SDS011;37075;44.084;2.962;2023-12-20T07:57:15;0.20;;;0.20;;
50517;SDS011;37075;44.084;2.962;2023-12-20T08:00:01;0.20;;;0.00;;
50517;SDS011;37075;44.084;2.962;2023-12-20T08:02:49;0.00;;;0.00;;
50517;SDS011;37075;44.084;2.962;2023-12-20T08:05:34;0.10;;;0.03;;
50517;SDS011;37075;44.084;2.962;2023-12-20T08:08:20;0.00;;;0.00;;
50517;SDS011;37075;44.084;2.962;2023-12-20T08:11:06;0.00;;;0.00;;
50517;SDS011;37075;44.084;2.962;2023-12-20T08:13:54;0.20;;;0.10;;
50517;SDS011;37075;44.084;2.962;2023-12-20T08:16:40;0.00;;;0.00;;
50517;SDS011;37075;44.084;2.962;2023-12-20T08:19:26;0.00;;;0.00;;
50517;SDS011;37075;44.084;2.962;2023-12-20T08:22:11;0.00;;;0.00;;
50517;SDS011;37075;44.084;2.962;2023-12-20T08:24:58;0.00;;;0.00;;
50517;SDS011;37075;44.084;2.962;2023-12-20T08:27:44;0.20;;;0.20;;
50517;SDS011;37075;44.084;2.962;2023-12-20T08:30:31;0.00;;;0.00;;
50517;SDS011;37075;44.084;2.962;2023-12-20T08:33:17;0.10;;;0.10;;
50517;SDS011;37075;44.084;2.962;2023-12-20T08:36:03;0.10;;;0.00;;
50517;SDS011;37075;44.084;2.962;2023-12-20T08:38:50;0.00;;;0.00;;
50517;SDS011;37075;44.084;2.962;2023-12-20T08:41:36;0.00;;;0.00;;
50517;SDS011;37075;44.084;2.962;2023-12-20T08:44:22;0.15;;;0.00;;
50517;SDS011;37075;44.084;2.962;2023-12-20T08:47:09;0.00;;;0.00;;
50517;SDS011;37075;44.084;2.962;2023-12-20T08:49:57;0.03;;;0.03;;
50517;SDS011;37075;44.084;2.962;2023-12-20T08:52:44;0.00;;;0.00;;
50517;SDS011;37075;44.084;2.962;2023-12-20T08:55:30;0.00;;;0.00;;
50517;SDS011;37075;44.084;2.962;2023-12-20T08:58:16;0.10;;;0.10;;
50517;SDS011;37075;44.084;2.962;2023-12-20T09:01:02;0.00;;;0.00;;
50517;SDS011;37075;44.084;2.962;2023-12-20T09:03:50;0.20;;;0.10;;
50517;SDS011;37075;44.084;2.962;2023-12-20T09:06:36;0.03;;;0.03;;
50517;SDS011;37075;44.084;2.962;2023-12-20T09:09:23;0.73;;;0.08;;
50517;SDS011;37075;44.084;2.962;2023-12-20T09:12:10;0.10;;;0.10;;
50517;SDS011;37075;44.084;2.962;2023-12-20T09:14:56;0.10;;;0.00;;
50517;SDS011;37075;44.084;2.962;2023-12-20T09:17:42;0.10;;;0.10;;
50517;SDS011;37075;44.084;2.962;2023-12-20T09:20:30;0.00;;;0.00;;
50517;SDS011;37075;44.084;2.962;2023-12-20T09:23:16;0.00;;;0.00;;
50517;SDS011;37075;44.084;2.962;2023-12-20T09:26:02;1.65;;;0.20;;
50517;SDS011;37075;44.084;2.962;2023-12-20T09:28:48;0.15;;;0.10;;
50517;SDS011;37075;44.084;2.962;2023-12-20T09:31:36;0.10;;;0.10;;
50517;SDS011;37075;44.084;2.962;2023-12-20T09:34:22;0.57;;;0.38;;
50517;SDS011;37075;44.084;2.962;2023-12-20T09:37:10;0.63;;;0.30;;
50517;SDS011;37075;44.084;2.962;2023-12-20T09:39:56;0.00;;;0.00;;
50517;SDS011;37075;44.084;2.962;2023-12-20T09:42:43;0.00;;;0.00;;
50517;SDS011;37075;44.084;2.962;2023-12-20T09:45:36;0.75;;;0.00;;
50517;SDS011;37075;44.084;2.962;2023-12-20T09:48:24;0.10;;;0.10;;
50517;SDS011;37075;44.084;2.962;2023-12-20T09:51:13;0.10;;;0.10;;
50517;SDS011;37075;44.084;2.962;2023-12-20T09:54:02;0.10;;;0.03;;
50517;SDS011;37075;44.084;2.962;2023-12-20T09:56:49;0.10;;;0.00;;
50517;SDS011;37075;44.084;2.962;2023-12-20T09:59:35;0.10;;;0.08;;
50517;SDS011;37075;44.084;2.962;2023-12-20T10:02:21;0.00;;;0.00;;
50517;SDS011;37075;44.084;2.962;2023-12-20T10:05:11;0.20;;;0.10;;
50517;SDS011;37075;44.084;2.962;2023-12-20T10:08:03;0.40;;;0.10;;
50517;SDS011;37075;44.084;2.962;2023-12-20T10:10:51;0.25;;;0.25;;
50517;SDS011;37075;44.084;2.962;2023-12-20T10:13:39;0.10;;;0.03;;
50517;SDS011;37075;44.084;2.962;2023-12-20T10:19:11;0.38;;;0.20;;
50517;SDS011;37075;44.084;2.962;2023-12-20T10:21:57;0.45;;;0.45;;
50517;SDS011;37075;44.084;2.962;2023-12-20T10:24:45;0.10;;;0.10;;
50517;SDS011;37075;44.084;2.962;2023-12-20T10:27:33;0.00;;;0.00;;
50517;SDS011;37075;44.084;2.962;2023-12-20T10:30:19;0.00;;;0.00;;
50517;SDS011;37075;44.084;2.962;2023-12-20T10:33:05;0.17;;;0.00;;
50517;SDS011;37075;44.084;2.962;2023-12-20T10:35:52;0.10;;;0.10;;
50517;SDS011;37075;44.084;2.962;2023-12-20T10:38:39;0.40;;;0.10;;
50517;SDS011;37075;44.084;2.962;2023-12-20T10:41:28;0.38;;;0.15;;
50517;SDS011;37075;44.084;2.962;2023-12-20T10:44:16;0.77;;;0.20;;
50517;SDS011;37075;44.084;2.962;2023-12-20T10:47:03;0.30;;;0.03;;
50517;SDS011;37075;44.084;2.962;2023-12-20T10:49:49;0.40;;;0.32;;
50517;SDS011;37075;44.084;2.962;2023-12-20T10:55:24;0.20;;;0.20;;
50517;SDS011;37075;44.084;2.962;2023-12-20T10:58:11;1.13;;;0.20;;
50517;SDS011;37075;44.084;2.962;2023-12-20T11:01:00;0.10;;;0.10;;
50517;SDS011;37075;44.084;2.962;2023-12-20T11:03:48;0.10;;;0.10;;
50517;SDS011;37075;44.084;2.962;2023-12-20T11:06:36;0.82;;;0.30;;
50517;SDS011;37075;44.084;2.962;2023-12-20T11:09:29;0.68;;;0.30;;
50517;SDS011;37075;44.084;2.962;2023-12-20T11:12:24;0.15;;;0.10;;
50517;SDS011;37075;44.084;2.962;2023-12-20T11:15:17;0.00;;;0.00;;
50517;SDS011;37075;44.084;2.962;2023-12-20T11:18:06;0.30;;;0.20;;
50517;SDS011;37075;44.084;2.962;2023-12-20T11:20:52;0.00;;;0.00;;
50517;SDS011;37075;44.084;2.962;2023-12-20T11:23:40;0.28;;;0.10;;
50517;SDS011;37075;44.084;2.962;2023-12-20T11:26:28;0.22;;;0.22;;
50517;SDS011;37075;44.084;2.962;2023-12-20T11:29:31;1.30;;;0.30;;
50517;SDS011;37075;44.084;2.962;2023-12-20T11:32:27;0.45;;;0.22;;
50517;SDS011;37075;44.084;2.962;2023-12-20T11:35:19;0.10;;;0.05;;
50517;SDS011;37075;44.084;2.962;2023-12-20T11:38:07;0.63;;;0.20;;
50517;SDS011;37075;44.084;2.962;2023-12-20T11:40:53;0.15;;;0.10;;
50517;SDS011;37075;44.084;2.962;2023-12-20T11:43:40;0.50;;;0.20;;
50517;SDS011;37075;44.084;2.962;2023-12-20T11:46:26;0.10;;;0.10;;
50517;SDS011;37075;44.084;2.962;2023-12-20T11:49:12;0.75;;;0.20;;
50517;SDS011;37075;44.084;2.962;2023-12-20T11:51:59;0.17;;;0.00;;
50517;SDS011;37075;44.084;2.962;2023-12-20T11:54:46;0.10;;;0.10;;
50517;SDS011;37075;44.084;2.962;2023-12-20T11:57:32;2.55;;;0.10;;
50517;SDS011;37075;44.084;2.962;2023-12-20T12:00:19;0.38;;;0.10;;
50517;SDS011;37075;44.084;2.962;2023-12-20T12:03:05;0.30;;;0.20;;
50517;SDS011;37075;44.084;2.962;2023-12-20T12:05:51;0.00;;;0.00;;
50517;SDS011;37075;44.084;2.962;2023-12-20T12:08:39;0.45;;;0.17;;
50517;SDS011;37075;44.084;2.962;2023-12-20T12:11:25;0.25;;;0.08;;
50517;SDS011;37075;44.084;2.962;2023-12-20T12:14:11;0.10;;;0.10;;
50517;SDS011;37075;44.084;2.962;2023-12-20T12:16:58;0.10;;;0.10;;
50517;SDS011;37075;44.084;2.962;2023-12-20T12:19:44;0.28;;;0.10;;
50517;SDS011;37075;44.084;2.962;2023-12-20T12:22:30;0.10;;;0.10;;
50517;SDS011;37075;44.084;2.962;2023-12-20T12:25:18;0.20;;;0.05;;
50517;SDS011;37075;44.084;2.962;2023-12-20T12:28:05;0.50;;;0.50;;
50517;SDS011;37075;44.084;2.962;2023-12-20T12:30:57;0.15;;;0.10;;
50517;SDS011;37075;44.084;2.962;2023-12-20T12:33:43;0.43;;;0.10;;
50517;SDS011;37075;44.084;2.962;2023-12-20T12:36:30;1.10;;;0.10;;
50517;SDS011;37075;44.084;2.962;2023-12-20T12:39:17;0.30;;;0.20;;
50517;SDS011;37075;44.084;2.962;2023-12-20T12:42:05;0.60;;;0.15;;
50517;SDS011;37075;44.084;2.962;2023-12-20T12:44:51;0.38;;;0.25;;
50517;SDS011;37075;44.084;2.962;2023-12-20T12:47:37;0.50;;;0.20;;
50517;SDS011;37075;44.084;2.962;2023-12-20T12:50:23;1.55;;;0.20;;
50517;SDS011;37075;44.084;2.962;2023-12-20T12:53:09;0.77;;;0.20;;
50517;SDS011;37075;44.084;2.962;2023-12-20T12:55:55;0.30;;;0.30;;
50517;SDS011;37075;44.084;2.962;2023-12-20T12:58:43;1.05;;;0.30;;
50517;SDS011;37075;44.084;2.962;2023-12-20T13:01:29;0.63;;;0.10;;
50517;SDS011;37075;44.084;2.962;2023-12-20T13:04:15;0.45;;;0.20;;
50517;SDS011;37075;44.084;2.962;2023-12-20T13:07:01;0.55;;;0.20;;
50517;SDS011;37075;44.084;2.962;2023-12-20T13:09:48;0.63;;;0.38;;
50517;SDS011;37075;44.084;2.962;2023-12-20T13:12:34;1.13;;;0.43;;
50517;SDS011;37075;44.084;2.962;2023-12-20T13:15:21;1.15;;;1.05;;
50517;SDS011;37075;44.084;2.962;2023-12-20T13:18:07;0.35;;;0.35;;
50517;SDS011;37075;44.084;2.962;2023-12-20T13:20:53;1.13;;;0.60;;
50517;SDS011;37075;44.084;2.962;2023-12-20T13:23:39;1.08;;;0.40;;
50517;SDS011;37075;44.084;2.962;2023-12-20T13:26:25;0.20;;;0.20;;
50517;SDS011;37075;44.084;2.962;2023-12-20T13:29:14;0.90;;;0.30;;
50517;SDS011;37075;44.084;2.962;2023-12-20T13:32:02;0.00;;;0.00;;
50517;SDS011;37075;44.084;2.962;2023-12-20T13:34:48;0.13;;;0.13;;
50517;SDS011;37075;44.084;2.962;2023-12-20T13:37:34;0.40;;;0.30;;
50517;SDS011;37075;44.084;2.962;2023-12-20T13:40:21;0.98;;;0.63;;
50517;SDS011;37075;44.084;2.962;2023-12-20T13:43:08;0.20;;;0.20;;
50517;SDS011;37075;44.084;2.962;2023-12-20T13:45:55;0.60;;;0.32;;
50517;SDS011;37075;44.084;2.962;2023-12-20T13:48:42;0.00;;;0.00;;
50517;SDS011;37075;44.084;2.962;2023-12-20T13:51:29;0.63;;;0.57;;
50517;SDS011;37075;44.084;2.962;2023-12-20T13:54:15;1.27;;;0.60;;
50517;SDS011;37075;44.084;2.962;2023-12-20T13:57:04;0.57;;;0.35;;
50517;SDS011;37075;44.084;2.962;2023-12-20T13:59:50;1.73;;;0.30;;
50517;SDS011;37075;44.084;2.962;2023-12-20T14:02:36;3.55;;;0.38;;
50517;SDS011;37075;44.084;2.962;2023-12-20T14:05:24;0.32;;;0.32;;
50517;SDS011;37075;44.084;2.962;2023-12-20T14:08:11;1.08;;;0.30;;
50517;SDS011;37075;44.084;2.962;2023-12-20T14:10:58;0.75;;;0.30;;
50517;SDS011;37075;44.084;2.962;2023-12-20T14:13:45;2.40;;;0.20;;
50517;SDS011;37075;44.084;2.962;2023-12-20T14:16:31;1.15;;;0.30;;
50517;SDS011;37075;44.084;2.962;2023-12-20T14:19:17;1.45;;;0.30;;
50517;SDS011;37075;44.084;2.962;2023-12-20T14:22:04;0.10;;;0.00;;
50517;SDS011;37075;44.084;2.962;2023-12-20T14:24:51;0.98;;;0.20;;
50517;SDS011;37075;44.084;2.962;2023-12-20T14:27:38;1.02;;;0.25;;
50517;SDS011;37075;44.084;2.962;2023-12-20T14:30:25;0.13;;;0.10;;
50517;SDS011;37075;44.084;2.962;2023-12-20T14:33:11;0.10;;;0.10;;
50517;SDS011;37075;44.084;2.962;2023-12-20T14:35:58;2.67;;;0.20;;
50517;SDS011;37075;44.084;2.962;2023-12-20T14:38:45;1.52;;;0.13;;
50517;SDS011;37075;44.084;2.962;2023-12-20T14:41:31;1.17;;;0.63;;
50517;SDS011;37075;44.084;2.962;2023-12-20T14:44:17;0.43;;;0.28;;
50517;SDS011;37075;44.084;2.962;2023-12-20T14:47:04;0.28;;;0.20;;
50517;SDS011;37075;44.084;2.962;2023-12-20T14:49:50;0.15;;;0.10;;
50517;SDS011;37075;44.084;2.962;2023-12-20T14:52:36;0.20;;;0.20;;
50517;SDS011;37075;44.084;2.962;2023-12-20T14:55:24;0.70;;;0.35;;
50517;SDS011;37075;44.084;2.962;2023-12-20T14:58:12;0.80;;;0.20;;
50517;SDS011;37075;44.084;2.962;2023-12-20T15:01:00;0.13;;;0.08;;
50517;SDS011;37075;44.084;2.962;2023-12-20T15:03:46;0.20;;;0.10;;
50517;SDS011;37075;44.084;2.962;2023-12-20T15:06:32;0.13;;;0.10;;
50517;SDS011;37075;44.084;2.962;2023-12-20T15:09:18;1.30;;;0.57;;
50517;SDS011;37075;44.084;2.962;2023-12-20T15:12:06;0.10;;;0.10;;
50517;SDS011;37075;44.084;2.962;2023-12-20T15:14:53;0.75;;;0.38;;
50517;SDS011;37075;44.084;2.962;2023-12-20T15:17:40;4.00;;;0.13;;
50517;SDS011;37075;44.084;2.962;2023-12-20T15:20:26;3.00;;;0.57;;
50517;SDS011;37075;44.084;2.962;2023-12-20T15:23:12;2.88;;;0.32;;
50517;SDS011;37075;44.084;2.962;2023-12-20T15:28:47;6.38;;;0.30;;
50517;SDS011;37075;44.084;2.962;2023-12-20T15:31:34;0.20;;;0.20;;
50517;SDS011;37075;44.084;2.962;2023-12-20T15:34:21;0.10;;;0.10;;
50517;SDS011;37075;44.084;2.962;2023-12-20T15:37:07;0.68;;;0.10;;
50517;SDS011;37075;44.084;2.962;2023-12-20T15:39:54;0.03;;;0.00;;
50517;SDS011;37075;44.084;2.962;2023-12-20T15:42:40;0.45;;;0.30;;
50517;SDS011;37075;44.084;2.962;2023-12-20T15:45:28;0.75;;;0.45;;
50517;SDS011;37075;44.084;2.962;2023-12-20T15:48:14;2.40;;;0.55;;
50517;SDS011;37075;44.084;2.962;2023-12-20T15:51:04;2.92;;;0.45;;
50517;SDS011;37075;44.084;2.962;2023-12-20T15:53:51;0.50;;;0.30;;
50517;SDS011;37075;44.084;2.962;2023-12-20T15:56:36;0.77;;;0.30;;
50517;SDS011;37075;44.084;2.962;2023-12-20T15:59:25;1.35;;;1.08;;
50517;SDS011;37075;44.084;2.962;2023-12-20T16:02:13;0.20;;;0.20;;
50517;SDS011;37075;44.084;2.962;2023-12-20T16:05:00;1.02;;;0.80;;
50517;SDS011;37075;44.084;2.962;2023-12-20T16:07:46;0.32;;;0.20;;
50517;SDS011;37075;44.084;2.962;2023-12-20T16:10:32;0.22;;;0.10;;
50517;SDS011;37075;44.084;2.962;2023-12-20T16:13:18;0.57;;;0.10;;
50517;SDS011;37075;44.084;2.962;2023-12-20T16:16:05;0.32;;;0.20;;
50517;SDS011;37075;44.084;2.962;2023-12-20T16:18:53;0.20;;;0.05;;
50517;SDS011;37075;44.084;2.962;2023-12-20T16:21:39;0.43;;;0.28;;
50517;SDS011;37075;44.084;2.962;2023-12-20T16:24:25;0.00;;;0.00;;
50517;SDS011;37075;44.084;2.962;2023-12-20T16:27:11;2.13;;;0.63;;
50517;SDS011;37075;44.084;2.962;2023-12-20T16:29:58;2.25;;;0.22;;
50517;SDS011;37075;44.084;2.962;2023-12-20T16:32:45;0.80;;;0.40;;
50517;SDS011;37075;44.084;2.962;2023-12-20T16:35:34;1.63;;;0.15;;
50517;SDS011;37075;44.084;2.962;2023-12-20T16:38:20;0.30;;;0.20;;
50517;SDS011;37075;44.084;2.962;2023-12-20T16:41:06;0.13;;;0.10;;
50517;SDS011;37075;44.084;2.962;2023-12-20T16:43:53;0.28;;;0.15;;
50517;SDS011;37075;44.084;2.962;2023-12-20T16:46:39;0.10;;;0.10;;
50517;SDS011;37075;44.084;2.962;2023-12-20T16:49:26;0.00;;;0.00;;
50517;SDS011;37075;44.084;2.962;2023-12-20T16:52:14;0.00;;;0.00;;
50517;SDS011;37075;44.084;2.962;2023-12-20T16:55:00;0.00;;;0.00;;